createdAt,value
2022-08-22T00:02:28.173Z,6.00
2022-08-22T00:02:55.614Z,5.45
2022-08-22T00:03:04.653Z,4.22
2022-08-22T00:05:07.243Z,4.75
2022-08-22T00:07:49.577Z,5.85
2022-08-22T00:10:25.212Z,5.65
2022-08-22T00:13:06.778Z,4.47
2022-08-22T00:15:43.723Z,5.75
2022-08-22T00:18:24.839Z,6.20
2022-08-22T00:21:05.415Z,6.03
2022-08-22T00:23:44.842Z,4.95
2022-08-22T00:26:24.632Z,4.10
2022-08-22T00:29:04.199Z,4.07
2022-08-22T00:31:36.374Z,4.23
2022-08-22T00:34:13.558Z,4.28
2022-08-22T00:36:49.058Z,5.80
2022-08-22T00:39:28.501Z,4.78
2022-08-22T00:42:32.115Z,4.05
2022-08-22T00:45:33.932Z,7.97
2022-08-22T00:48:22.132Z,4.35
2022-08-22T00:51:12.627Z,8.05
2022-08-22T00:56:45.186Z,4.68
2022-08-22T00:59:44.733Z,3.60
2022-08-22T01:02:33.912Z,5.03
2022-08-22T01:05:29.238Z,5.05
2022-08-22T01:08:12.389Z,5.68
2022-08-22T01:10:57.858Z,6.90
2022-08-22T01:13:47.053Z,4.85
2022-08-22T01:16:32.215Z,5.40
2022-08-22T01:19:31.182Z,7.60
2022-08-22T01:22:33.084Z,6.40
2022-08-22T01:25:41.634Z,4.80
2022-08-22T01:28:55.531Z,5.28
2022-08-22T01:31:54.112Z,6.75
2022-08-22T01:34:58.361Z,6.82
2022-08-22T01:38:10.623Z,5.18
2022-08-22T01:41:23.282Z,6.88
2022-08-22T01:44:05.763Z,6.90
2022-08-22T01:46:50.148Z,9.95
2022-08-22T01:49:25.602Z,4.78
2022-08-22T01:52:02.025Z,9.02
2022-08-22T01:54:45.871Z,9.75
2022-08-22T01:57:16.596Z,6.68
2022-08-22T01:59:51.226Z,6.63
2022-08-22T02:02:37.093Z,8.25
2022-08-22T02:05:14.293Z,6.53
2022-08-22T02:07:52.617Z,3.45
2022-08-22T02:10:29.809Z,6.90
2022-08-22T02:13:23.275Z,5.40
2022-08-22T02:16:09.625Z,4.20
2022-08-22T02:18:58.305Z,5.82
2022-08-22T02:21:40.761Z,7.18
2022-08-22T02:24:20.524Z,5.32
2022-08-22T02:26:59.655Z,4.18
2022-08-22T02:29:35.296Z,4.28
2022-08-22T02:32:19.431Z,6.88
2022-08-22T02:34:58.188Z,5.65
2022-08-22T02:37:35.821Z,4.72
2022-08-22T02:40:11.586Z,7.57
2022-08-22T02:42:46.987Z,5.43
2022-08-22T02:45:28.623Z,5.88
2022-08-22T02:48:15.846Z,5.03
2022-08-22T02:50:54.461Z,4.68
2022-08-22T02:53:31.592Z,5.72
2022-08-22T02:56:07.349Z,4.22
2022-08-22T02:58:47.617Z,8.75
2022-08-22T03:01:36.928Z,9.10
2022-08-22T03:04:29.841Z,7.57
2022-08-22T03:07:19.206Z,6.90
2022-08-22T03:09:52.941Z,5.20
2022-08-22T03:12:32.177Z,5.77
2022-08-22T03:15:09.124Z,5.43
2022-08-22T03:17:46.882Z,7.13
2022-08-22T03:20:26.079Z,5.95
2022-08-22T03:23:01.075Z,5.50
2022-08-22T03:25:40.284Z,4.80
2022-08-22T03:28:14.377Z,7.70
2022-08-22T03:30:46.722Z,6.73
2022-08-22T03:33:21.071Z,6.73
2022-08-22T03:36:03.267Z,10.47
2022-08-22T03:39:01.841Z,6.00
2022-08-22T03:42:11.043Z,5.53
2022-08-22T03:45:06.919Z,6.40
2022-08-22T03:47:55.905Z,7.30
2022-08-22T03:50:49.379Z,6.30
2022-08-22T03:53:58.504Z,8.03
2022-08-22T03:57:01.292Z,4.07
2022-08-22T04:00:00.595Z,4.40
2022-08-22T04:02:59.453Z,9.07
2022-08-22T04:05:53.412Z,5.20
2022-08-22T04:08:53.960Z,7.17
2022-08-22T04:12:02.955Z,6.93
2022-08-22T04:15:27.414Z,5.90
2022-08-22T04:18:11.687Z,5.47
2022-08-22T04:21:11.844Z,5.87
2022-08-22T04:24:27.139Z,8.00
2022-08-22T04:26:59.578Z,5.60
2022-08-22T04:29:38.525Z,8.80
2022-08-22T04:32:14.486Z,7.90
2022-08-22T04:34:52.161Z,6.07
2022-08-22T04:37:25.230Z,7.43
2022-08-22T04:40:02.801Z,4.70
2022-08-22T04:42:36.418Z,6.63
2022-08-22T04:45:12.801Z,4.93
2022-08-22T04:47:44.115Z,4.20
2022-08-22T04:50:24.816Z,6.87
2022-08-22T04:53:14.487Z,4.43
2022-08-22T04:55:55.421Z,7.93
2022-08-22T04:58:34.452Z,7.90
2022-08-22T05:01:12.355Z,4.53
2022-08-22T05:03:45.095Z,7.00
2022-08-22T05:06:21.723Z,7.30
2022-08-22T05:08:54.081Z,5.80
2022-08-22T05:11:26.914Z,8.57
2022-08-22T05:14:00.098Z,5.38
2022-08-22T05:16:38.992Z,7.53
2022-08-22T05:19:17.460Z,5.07
2022-08-22T05:21:53.914Z,5.13
2022-08-22T05:24:28.043Z,5.20
2022-08-22T05:27:02.110Z,4.97
2022-08-22T05:29:33.661Z,3.35
2022-08-22T05:32:12.026Z,6.25
2022-08-22T05:34:44.041Z,7.60
2022-08-22T05:37:20.931Z,4.10
2022-08-22T05:39:52.532Z,7.43
2022-08-22T05:42:31.305Z,11.38
2022-08-22T05:45:03.123Z,8.55
2022-08-22T05:47:39.762Z,6.97
2022-08-22T05:50:12.047Z,9.05
2022-08-22T05:52:56.284Z,7.65
2022-08-22T05:55:28.836Z,5.60
2022-08-22T05:58:21.861Z,9.75
2022-08-22T06:00:57.379Z,10.85
2022-08-22T06:03:35.274Z,11.68
2022-08-22T06:06:17.254Z,12.60
2022-08-22T06:08:58.204Z,8.23
2022-08-22T06:11:33.713Z,11.27
2022-08-22T06:14:16.956Z,8.32
2022-08-22T06:16:58.243Z,9.60
2022-08-22T06:19:30.239Z,9.30
2022-08-22T06:21:58.685Z,9.00
2022-08-22T06:24:29.286Z,5.82
2022-08-22T06:27:08.048Z,9.30
2022-08-22T06:29:40.649Z,8.35
2022-08-22T06:32:17.027Z,8.77
2022-08-22T06:35:12.998Z,9.32
2022-08-22T06:37:46.028Z,6.93
2022-08-22T06:40:18.658Z,7.72
2022-08-22T06:42:52.443Z,8.57
2022-08-22T06:45:27.484Z,6.35
2022-08-22T06:48:15.490Z,9.60
2022-08-22T06:50:48.997Z,11.23
2022-08-22T06:53:21.744Z,12.52
2022-08-22T06:55:55.753Z,7.68
2022-08-22T06:58:34.257Z,11.75
2022-08-22T07:01:11.885Z,11.27
2022-08-22T07:03:47.856Z,7.75
2022-08-22T07:06:29.430Z,10.60
2022-08-22T07:08:59.695Z,9.13
2022-08-22T07:11:39.021Z,6.50
2022-08-22T07:14:13.452Z,6.50
2022-08-22T07:16:45.523Z,4.05
2022-08-22T07:19:27.598Z,9.52
2022-08-22T07:21:56.709Z,9.73
2022-08-22T07:24:29.643Z,6.63
2022-08-22T07:27:08.993Z,6.45
2022-08-22T07:29:46.307Z,9.43
2022-08-22T07:32:18.746Z,7.82
2022-08-22T07:35:04.248Z,6.63
2022-08-22T07:37:46.259Z,4.68
2022-08-22T07:40:23.972Z,9.82
2022-08-22T07:42:57.122Z,9.68
2022-08-22T07:45:35.886Z,6.57
2022-08-22T07:48:25.466Z,7.90
2022-08-22T07:51:08.715Z,7.40
2022-08-22T07:53:41.561Z,7.78
2022-08-22T07:56:17.428Z,6.88
2022-08-22T07:58:50.928Z,6.55
2022-08-22T08:01:27.399Z,9.68
2022-08-22T08:03:57.680Z,8.02
2022-08-22T08:06:34.479Z,5.65
2022-08-22T08:09:03.482Z,6.18
2022-08-22T08:11:36.758Z,7.55
2022-08-22T08:14:08.486Z,5.47
2022-08-22T08:16:46.402Z,6.85
2022-08-22T08:19:18.931Z,4.30
2022-08-22T08:21:55.466Z,6.20
2022-08-22T08:24:41.096Z,5.88
2022-08-22T08:27:32.827Z,7.00
2022-08-22T08:30:05.158Z,5.38
2022-08-22T08:32:41.980Z,5.43
2022-08-22T08:35:20.430Z,5.05
2022-08-22T08:37:59.619Z,6.18
2022-08-22T08:40:56.505Z,5.80
2022-08-22T08:43:38.426Z,4.97
2022-08-22T08:46:43.386Z,5.60
2022-08-22T08:49:42.107Z,5.43
2022-08-22T08:52:48.208Z,2.50
2022-08-22T08:55:33.333Z,6.32
2022-08-22T08:58:17.764Z,4.50
2022-08-22T09:00:55.455Z,4.57
2022-08-22T09:04:15.285Z,5.68
2022-08-22T09:07:02.263Z,4.07
2022-08-22T09:09:52.307Z,4.60
2022-08-22T09:12:56.385Z,3.60
2022-08-22T09:16:04.506Z,5.55
2022-08-22T09:19:16.541Z,2.90
2022-08-22T09:22:14.310Z,3.15
2022-08-22T09:25:24.904Z,4.90
2022-08-22T09:28:01.813Z,3.17
2022-08-22T09:30:47.979Z,4.80
2022-08-22T09:33:32.221Z,3.40
2022-08-22T09:36:06.817Z,3.17
2022-08-22T09:38:48.678Z,5.35
2022-08-22T09:41:33.419Z,5.65
2022-08-22T09:46:51.221Z,3.83
2022-08-22T09:49:28.583Z,3.70
2022-08-22T09:52:14.485Z,6.00
2022-08-22T09:54:48.285Z,4.90
2022-08-22T09:57:28.607Z,3.10
2022-08-22T10:00:22.197Z,2.80
2022-08-22T10:03:02.279Z,5.47
2022-08-22T10:05:44.424Z,4.43
2022-08-22T10:08:33.187Z,6.47
2022-08-22T10:11:15.507Z,2.33
2022-08-22T10:13:57.606Z,3.05
2022-08-22T10:16:50.253Z,2.47
2022-08-22T10:19:27.770Z,2.90
2022-08-22T10:22:17.939Z,3.00
2022-08-22T10:24:56.368Z,2.80
2022-08-22T10:27:43.898Z,3.40
2022-08-22T10:30:19.777Z,2.60
2022-08-22T10:33:14.393Z,2.00
2022-08-22T10:36:05.101Z,2.88
2022-08-22T10:38:46.313Z,0.98
2022-08-22T10:41:28.618Z,1.40
2022-08-22T10:44:06.328Z,2.20
2022-08-22T10:46:42.264Z,2.30
2022-08-22T10:49:20.780Z,1.90
2022-08-22T10:52:09.707Z,2.05
2022-08-22T10:54:49.423Z,1.30
2022-08-22T10:57:43.182Z,4.28
2022-08-22T11:00:22.441Z,2.47
2022-08-22T11:02:55.529Z,1.60
2022-08-22T11:05:43.285Z,3.17
2022-08-22T11:08:34.999Z,3.10
2022-08-22T11:11:09.396Z,2.47
2022-08-22T11:13:45.922Z,1.40
2022-08-22T11:16:29.094Z,3.13
2022-08-22T11:19:15.877Z,2.28
2022-08-22T11:22:04.059Z,1.23
2022-08-22T11:25:11.252Z,1.38
2022-08-22T11:27:49.204Z,2.10
2022-08-22T11:30:22.117Z,1.08
2022-08-22T11:33:26.460Z,1.58
2022-08-22T11:39:13.789Z,3.03
2022-08-22T11:41:56.815Z,1.73
2022-08-22T11:44:31.206Z,1.60
2022-08-22T11:47:04.790Z,1.25
2022-08-22T11:49:45.830Z,4.45
2022-08-22T11:52:29.140Z,2.80
2022-08-22T11:55:19.167Z,3.17
2022-08-22T11:57:53.932Z,1.10
2022-08-22T12:00:32.051Z,1.77
2022-08-22T12:03:42.171Z,2.03
2022-08-22T12:06:36.928Z,3.95
2022-08-22T12:09:20.504Z,2.95
2022-08-22T12:14:34.934Z,1.15
2022-08-22T12:17:51.086Z,2.28
2022-08-22T12:20:17.387Z,2.72
2022-08-22T12:23:17.279Z,2.45
2022-08-22T12:26:05.669Z,0.90
2022-08-22T12:28:52.841Z,3.15
2022-08-22T12:31:32.174Z,2.30
2022-08-22T12:34:10.746Z,1.67
2022-08-22T12:37:10.034Z,1.05
2022-08-22T12:40:08.453Z,2.45
2022-08-22T12:45:36.708Z,2.08
2022-08-22T12:48:24.287Z,0.75
2022-08-22T12:50:58.320Z,2.30
2022-08-22T12:53:54.355Z,1.77
2022-08-22T12:56:33.552Z,2.88
2022-08-22T12:59:18.629Z,1.90
2022-08-22T13:01:50.594Z,1.67
2022-08-22T13:04:33.673Z,2.30
2022-08-22T13:09:43.313Z,2.88
2022-08-22T13:12:23.796Z,1.45
2022-08-22T13:14:55.736Z,2.08
2022-08-22T13:17:27.986Z,1.95
2022-08-22T13:20:03.211Z,2.55
2022-08-22T13:22:36.583Z,1.90
2022-08-22T13:25:15.496Z,1.70
2022-08-22T13:27:56.365Z,1.83
2022-08-22T13:30:33.397Z,1.45
2022-08-22T13:33:09.574Z,1.15
2022-08-22T13:35:52.026Z,2.95
2022-08-22T13:38:28.577Z,1.48
2022-08-22T13:40:59.025Z,3.55
2022-08-22T13:43:31.074Z,1.20
2022-08-22T13:46:02.334Z,1.67
2022-08-22T13:48:47.473Z,2.28
2022-08-22T13:51:26.681Z,2.25
2022-08-22T13:54:11.141Z,2.88
2022-08-22T13:56:50.634Z,5.18
2022-08-22T13:59:49.635Z,2.47
2022-08-22T14:02:55.390Z,1.23
2022-08-22T14:05:33.099Z,5.43
2022-08-22T14:08:15.900Z,2.28
2022-08-22T14:10:55.583Z,2.42
2022-08-22T14:13:45.886Z,1.67
2022-08-22T14:16:27.134Z,2.05
2022-08-22T14:19:00.982Z,2.72
2022-08-22T14:21:43.597Z,1.95
2022-08-22T14:24:20.398Z,3.05
2022-08-22T14:26:58.403Z,2.70
2022-08-22T14:29:32.302Z,2.72
2022-08-22T14:32:15.397Z,1.30
2022-08-22T14:34:57.462Z,1.13
2022-08-22T14:37:34.478Z,2.08
2022-08-22T14:40:14.659Z,4.73
2022-08-22T14:42:50.564Z,3.88
2022-08-22T14:45:24.987Z,3.10
2022-08-22T14:48:29.523Z,1.90
2022-08-22T14:50:55.511Z,1.85
2022-08-22T14:53:29.038Z,2.03
2022-08-22T14:56:01.172Z,1.70
2022-08-22T14:58:35.271Z,1.70
2022-08-22T15:01:13.937Z,2.58
2022-08-22T15:03:53.591Z,2.93
2022-08-22T15:06:34.705Z,2.63
2022-08-22T15:09:08.886Z,1.38
2022-08-22T15:11:42.225Z,0.88
2022-08-22T15:14:16.018Z,1.88
2022-08-22T15:16:53.910Z,2.50
2022-08-22T15:19:27.967Z,2.70
2022-08-22T15:22:10.194Z,2.78
2022-08-22T15:24:46.182Z,4.97
2022-08-22T15:27:20.434Z,3.80
2022-08-22T15:29:52.426Z,1.90
2022-08-22T15:32:26.539Z,4.00
2022-08-22T15:35:06.060Z,2.88
2022-08-22T15:37:35.661Z,3.42
2022-08-22T15:40:12.645Z,2.65
2022-08-22T15:42:43.431Z,2.63
2022-08-22T15:45:21.529Z,2.05
2022-08-22T15:47:53.209Z,1.30
2022-08-22T15:50:32.357Z,3.85
2022-08-22T15:53:14.449Z,3.17
2022-08-22T15:56:28.972Z,4.43
2022-08-22T15:59:27.964Z,3.40
2022-08-22T16:04:40.835Z,1.70
2022-08-22T16:07:26.903Z,2.80
2022-08-22T16:09:57.313Z,2.15
2022-08-22T16:12:34.156Z,2.00
2022-08-22T16:15:07.486Z,4.60
2022-08-22T16:17:55.992Z,2.92
2022-08-22T16:20:55.028Z,4.00
2022-08-22T16:23:23.086Z,1.70
2022-08-22T16:26:17.034Z,1.48
2022-08-22T16:28:58.995Z,4.53
2022-08-22T16:31:31.829Z,1.95
2022-08-22T16:34:20.735Z,3.95
2022-08-22T16:37:41.149Z,3.15
2022-08-22T16:40:16.562Z,1.23
2022-08-22T16:42:50.721Z,3.60
2022-08-22T16:45:31.164Z,3.65
2022-08-22T16:48:24.679Z,1.40
2022-08-22T16:51:04.377Z,5.07
2022-08-22T16:54:08.520Z,2.30
2022-08-22T16:56:47.726Z,2.92
2022-08-22T16:59:33.242Z,3.75
2022-08-22T17:02:33.237Z,1.35
2022-08-22T17:05:30.185Z,1.48
2022-08-22T17:08:14.943Z,2.90
2022-08-22T17:10:55.506Z,1.77
2022-08-22T17:13:43.924Z,1.00
2022-08-22T17:16:30.083Z,1.73
2022-08-22T17:19:14.026Z,4.35
2022-08-22T17:21:51.754Z,3.20
2022-08-22T17:24:33.940Z,2.00
2022-08-22T17:27:10.669Z,3.35
2022-08-22T17:29:53.766Z,3.40
2022-08-22T17:32:33.667Z,2.10
2022-08-22T17:35:15.946Z,1.58
2022-08-22T17:37:56.731Z,4.93
2022-08-22T17:40:32.089Z,1.95
2022-08-22T17:43:24.801Z,1.75
2022-08-22T17:46:23.950Z,3.25
2022-08-22T17:49:00.685Z,2.17
2022-08-22T17:51:36.802Z,1.98
2022-08-22T17:54:16.201Z,1.52
2022-08-22T17:56:55.760Z,2.43
2022-08-22T17:59:39.281Z,4.70
2022-08-22T18:02:16.338Z,4.28
2022-08-22T18:04:53.719Z,3.15
2022-08-22T18:07:41.634Z,3.10
2022-08-22T18:10:19.918Z,2.92
2022-08-22T18:13:01.320Z,4.07
2022-08-22T18:15:35.233Z,2.97
2022-08-22T18:18:07.911Z,2.28
2022-08-22T18:20:49.499Z,4.53
2022-08-22T18:23:36.288Z,4.25
2022-08-22T18:26:24.112Z,4.13
2022-08-22T18:28:56.108Z,2.67
2022-08-22T18:31:38.267Z,5.18
2022-08-22T18:34:14.589Z,2.80
2022-08-22T18:36:55.456Z,3.05
2022-08-22T18:39:29.462Z,5.38
2022-08-22T18:42:07.189Z,1.90
2022-08-22T18:44:39.001Z,5.28
2022-08-22T18:47:18.245Z,4.20
2022-08-22T18:49:54.356Z,4.57
2022-08-22T18:52:40.935Z,4.05
2022-08-22T18:55:23.531Z,4.35
2022-08-22T18:58:06.260Z,4.05
2022-08-22T19:01:05.060Z,4.25
2022-08-22T19:03:50.201Z,3.63
2022-08-22T19:06:38.873Z,4.60
2022-08-22T19:09:35.491Z,4.53
2022-08-22T19:12:19.911Z,3.75
2022-08-22T19:15:07.450Z,4.72
2022-08-22T19:17:55.821Z,5.95
2022-08-22T19:20:48.652Z,4.88
2022-08-22T19:23:42.040Z,4.15
2022-08-22T19:26:39.443Z,2.85
2022-08-22T19:29:49.311Z,5.85
2022-08-22T19:32:53.597Z,4.35
2022-08-22T19:35:27.005Z,3.83
2022-08-22T19:37:58.747Z,6.63
2022-08-22T19:40:53.889Z,6.78
2022-08-22T19:43:32.357Z,5.00
2022-08-22T19:46:05.966Z,4.78
2022-08-22T19:48:44.598Z,5.28
2022-08-22T19:51:25.058Z,5.63
2022-08-22T19:56:43.596Z,4.95
2022-08-22T19:59:26.235Z,7.95
2022-08-22T20:02:03.162Z,4.85
2022-08-22T20:05:00.060Z,5.55
2022-08-22T20:07:39.497Z,5.00
2022-08-22T20:10:20.935Z,6.80
2022-08-22T20:13:02.434Z,6.22
2022-08-22T20:15:32.876Z,5.28
2022-08-22T20:21:03.093Z,7.88
2022-08-22T20:23:33.801Z,4.18
2022-08-22T20:26:02.273Z,9.13
2022-08-22T20:28:40.110Z,7.32
2022-08-22T20:31:12.409Z,5.32
2022-08-22T20:33:46.133Z,5.00
2022-08-22T20:36:27.626Z,6.95
2022-08-22T20:39:03.006Z,6.43
2022-08-22T20:41:38.655Z,8.00
2022-08-22T20:44:13.498Z,7.50
2022-08-22T20:46:53.483Z,4.47
2022-08-22T20:49:30.174Z,7.57
2022-08-22T20:52:00.024Z,5.20
2022-08-22T20:54:34.296Z,4.13
2022-08-22T20:57:04.583Z,4.57
2022-08-22T20:59:37.173Z,8.63
2022-08-22T21:02:11.161Z,8.90
2022-08-22T21:04:53.168Z,5.68
2022-08-22T21:07:30.535Z,5.85
2022-08-22T21:10:23.133Z,7.00
2022-08-22T21:13:20.296Z,7.00
2022-08-22T21:15:54.401Z,4.57
2022-08-22T21:18:29.443Z,5.28
2022-08-22T21:21:16.951Z,4.10
2022-08-22T21:23:48.362Z,6.13
2022-08-22T21:28:58.281Z,7.83
2022-08-22T21:31:31.753Z,6.57
2022-08-22T21:34:01.141Z,7.47
2022-08-22T21:36:40.479Z,14.00
2022-08-22T21:39:15.194Z,5.80
2022-08-22T21:41:51.693Z,6.67
2022-08-22T21:44:33.249Z,4.87
2022-08-22T21:47:23.307Z,4.57
2022-08-22T21:50:18.718Z,5.73
2022-08-22T21:53:06.007Z,7.40
2022-08-22T21:55:42.825Z,6.07
2022-08-22T21:58:36.655Z,10.77
2022-08-22T22:01:29.027Z,8.37
2022-08-22T22:04:02.036Z,9.07
2022-08-22T22:06:29.858Z,8.20
2022-08-22T22:08:59.218Z,4.83
2022-08-22T22:11:27.129Z,6.60
2022-08-22T22:13:55.096Z,5.87
2022-08-22T22:16:27.669Z,9.57
2022-08-22T22:18:57.925Z,9.50
2022-08-22T22:21:28.143Z,6.30
2022-08-22T22:23:56.438Z,8.73
2022-08-22T22:26:30.624Z,8.37
2022-08-22T22:28:59.728Z,7.20
2022-08-22T22:31:27.673Z,11.43
2022-08-22T22:33:55.802Z,6.63
2022-08-22T22:36:27.854Z,8.90
2022-08-22T22:38:56.071Z,6.37
2022-08-22T22:41:27.547Z,5.80
2022-08-22T22:43:59.080Z,7.60
2022-08-22T22:46:27.541Z,9.33
2022-08-22T22:48:58.147Z,7.13
2022-08-22T22:51:28.211Z,4.63
2022-08-22T22:53:57.148Z,8.02
2022-08-22T22:56:28.260Z,8.13
2022-08-22T22:59:00.851Z,6.93
2022-08-22T23:02:02.504Z,6.50
2022-08-22T23:04:34.517Z,7.87
2022-08-22T23:07:03.179Z,11.33
2022-08-22T23:09:38.602Z,5.00
2022-08-22T23:12:15.335Z,7.25
2022-08-22T23:14:47.145Z,6.87
2022-08-22T23:17:17.708Z,6.63
2022-08-22T23:19:46.227Z,5.57
2022-08-22T23:22:17.526Z,6.35
2022-08-22T23:24:45.462Z,6.57
2022-08-22T23:27:15.540Z,6.45
2022-08-22T23:29:45.147Z,5.93
2022-08-22T23:32:13.776Z,7.65
2022-08-22T23:34:47.954Z,5.57
2022-08-22T23:37:17.769Z,7.90
2022-08-22T23:39:48.872Z,6.57
2022-08-22T23:42:20.027Z,8.60
2022-08-22T23:44:51.920Z,5.90
2022-08-22T23:47:19.733Z,6.30
2022-08-22T23:49:49.468Z,10.07
2022-08-22T23:52:20.742Z,8.85
2022-08-22T23:54:48.594Z,7.90
2022-08-22T23:57:27.571Z,6.55
2022-08-22T23:59:58.892Z,6.72
